createdAt,value
2023-12-17T00:00:28.343Z,73.16
2023-12-17T00:01:28.410Z,73.26
2023-12-17T00:02:28.301Z,73.26
2023-12-17T00:03:28.377Z,73.22
2023-12-17T00:04:28.362Z,73.22
2023-12-17T00:05:28.303Z,73.22
2023-12-17T00:06:28.390Z,73.22
2023-12-17T00:07:28.253Z,73.22
2023-12-17T00:08:28.226Z,73.26
2023-12-17T00:09:28.214Z,73.22
2023-12-17T00:10:28.205Z,73.22
2023-12-17T00:11:28.184Z,73.22
2023-12-17T00:12:28.241Z,73.22
2023-12-17T00:13:28.164Z,73.22
2023-12-17T00:14:28.144Z,73.26
2023-12-17T00:15:28.229Z,73.26
2023-12-17T00:16:28.120Z,73.26
2023-12-17T00:17:28.170Z,73.22
2023-12-17T00:18:28.270Z,73.26
2023-12-17T00:19:28.206Z,73.22
2023-12-17T00:20:28.064Z,73.26
2023-12-17T00:21:28.087Z,73.22
2023-12-17T00:22:28.040Z,73.22
2023-12-17T00:23:28.024Z,73.22
2023-12-17T00:24:28.013Z,73.26
2023-12-17T00:25:28.015Z,73.26
2023-12-17T00:26:27.992Z,73.22
2023-12-17T00:27:27.970Z,73.22
2023-12-17T00:28:27.958Z,73.26
2023-12-17T00:29:27.952Z,73.22
2023-12-17T00:30:28.025Z,73.26
2023-12-17T00:31:27.922Z,73.22
2023-12-17T00:32:27.976Z,73.22
2023-12-17T00:33:28.017Z,73.22
2023-12-17T00:34:28.355Z,73.22
2023-12-17T00:35:27.867Z,73.22
2023-12-17T00:36:27.860Z,73.26
2023-12-17T00:37:27.842Z,73.22
2023-12-17T00:38:27.824Z,73.22
2023-12-17T00:39:27.831Z,73.26
2023-12-17T00:40:27.795Z,73.36
2023-12-17T00:41:27.787Z,73.36
2023-12-17T00:42:27.774Z,73.33
2023-12-17T00:43:27.764Z,73.36
2023-12-17T00:44:27.745Z,73.22
2023-12-17T00:45:27.805Z,73.22
2023-12-17T00:46:27.722Z,73.26
2023-12-17T00:47:27.784Z,73.33
2023-12-17T00:48:27.868Z,73.36
2023-12-17T00:49:27.807Z,73.26
2023-12-17T00:50:27.665Z,73.26
2023-12-17T00:51:27.659Z,73.36
2023-12-17T00:52:27.637Z,73.36
2023-12-17T00:53:27.623Z,73.36
2023-12-17T00:54:27.670Z,73.36
2023-12-17T00:55:27.611Z,73.36
2023-12-17T00:56:27.588Z,73.36
2023-12-17T00:57:27.643Z,73.33
2023-12-17T00:58:27.580Z,73.36
2023-12-17T00:59:27.553Z,73.33
2023-12-17T01:00:27.829Z,73.33
2023-12-17T01:01:27.545Z,73.33
2023-12-17T01:02:27.547Z,73.36
2023-12-17T01:03:27.578Z,73.33
2023-12-17T01:04:27.476Z,73.33
2023-12-17T01:05:27.528Z,73.33
2023-12-17T01:06:27.550Z,73.36
2023-12-17T01:07:27.452Z,73.33
2023-12-17T01:08:27.429Z,73.33
2023-12-17T01:09:27.437Z,73.36
2023-12-17T01:10:27.397Z,73.46
2023-12-17T01:11:27.384Z,73.33
2023-12-17T01:12:27.409Z,73.46
2023-12-17T01:13:29.850Z,73.36
2023-12-17T01:14:27.435Z,73.33
2023-12-17T01:15:27.502Z,73.33
2023-12-17T01:16:27.322Z,73.33
2023-12-17T01:17:27.324Z,73.43
2023-12-17T01:18:27.454Z,73.43
2023-12-17T01:19:27.350Z,73.43
2023-12-17T01:20:27.279Z,73.43
2023-12-17T01:21:27.276Z,73.46
2023-12-17T01:22:27.237Z,73.43
2023-12-17T01:23:27.240Z,73.46
2023-12-17T01:24:27.248Z,73.46
2023-12-17T01:25:27.197Z,73.43
2023-12-17T01:26:27.183Z,73.53
2023-12-17T01:27:27.169Z,73.43
2023-12-17T01:28:27.154Z,73.46
2023-12-17T01:29:27.144Z,73.43
2023-12-17T01:30:27.211Z,73.46
2023-12-17T01:31:27.112Z,73.43
2023-12-17T01:32:27.104Z,73.46
2023-12-17T01:33:27.135Z,73.46
2023-12-17T01:34:27.199Z,73.46
2023-12-17T01:35:27.059Z,73.43
2023-12-17T01:36:27.055Z,73.46
2023-12-17T01:37:27.072Z,73.43
2023-12-17T01:38:27.024Z,73.43
2023-12-17T01:39:27.050Z,73.43
2023-12-17T01:40:27.002Z,73.43
2023-12-17T01:41:26.975Z,73.43
2023-12-17T01:42:26.983Z,73.43
2023-12-17T01:43:26.948Z,73.43
2023-12-17T01:44:26.943Z,73.43
2023-12-17T01:45:26.969Z,73.33
2023-12-17T01:46:26.911Z,73.43
2023-12-17T01:47:26.917Z,73.43
2023-12-17T01:48:27.102Z,73.43
2023-12-17T01:49:26.949Z,73.46
2023-12-17T01:50:27.098Z,73.43
2023-12-17T01:51:26.902Z,73.43
2023-12-17T01:52:26.829Z,73.33
2023-12-17T01:53:26.844Z,73.33
2023-12-17T01:54:26.846Z,73.43
2023-12-17T01:55:26.794Z,73.33
2023-12-17T01:56:26.808Z,73.33
2023-12-17T01:57:26.813Z,73.43
2023-12-17T01:58:26.747Z,73.46
2023-12-17T01:59:26.731Z,73.43
2023-12-17T02:00:26.873Z,73.43
2023-12-17T02:01:26.724Z,73.43
2023-12-17T02:02:26.693Z,73.43
2023-12-17T02:03:26.767Z,73.43
2023-12-17T02:04:26.663Z,73.43
2023-12-17T02:05:26.734Z,73.53
2023-12-17T02:06:26.766Z,73.43
2023-12-17T02:07:26.631Z,73.53
2023-12-17T02:08:26.681Z,73.53
2023-12-17T02:09:26.649Z,73.53
2023-12-17T02:10:26.672Z,73.53
2023-12-17T02:11:26.571Z,73.43
2023-12-17T02:12:26.650Z,73.43
2023-12-17T02:13:26.548Z,73.43
2023-12-17T02:14:26.550Z,73.43
2023-12-17T02:15:26.598Z,73.43
2023-12-17T02:16:26.558Z,73.43
2023-12-17T02:17:26.530Z,73.43
2023-12-17T02:18:26.660Z,73.46
2023-12-17T02:19:26.601Z,73.53
2023-12-17T02:20:26.468Z,73.57
2023-12-17T02:21:26.496Z,73.43
2023-12-17T02:22:26.438Z,73.53
2023-12-17T02:23:26.431Z,73.46
2023-12-17T02:24:26.567Z,73.57
2023-12-17T02:25:26.419Z,73.53
2023-12-17T02:26:26.382Z,73.57
2023-12-17T02:27:26.465Z,73.57
2023-12-17T02:28:26.353Z,73.53
2023-12-17T02:29:26.371Z,73.53
2023-12-17T02:30:26.427Z,73.43
2023-12-17T02:31:26.423Z,73.43
2023-12-17T02:32:26.300Z,73.43
2023-12-17T02:33:26.566Z,73.43
2023-12-17T02:34:26.369Z,73.43
2023-12-17T02:35:26.257Z,73.43
2023-12-17T02:36:26.375Z,73.46
2023-12-17T02:37:26.232Z,73.43
2023-12-17T02:38:26.223Z,73.53
2023-12-17T02:39:26.246Z,73.53
2023-12-17T02:40:26.209Z,73.53
2023-12-17T02:41:26.206Z,73.43
2023-12-17T02:42:26.274Z,73.43
2023-12-17T02:43:26.169Z,73.43
2023-12-17T02:44:26.154Z,73.43
2023-12-17T02:45:26.165Z,73.43
2023-12-17T02:46:26.118Z,73.46
2023-12-17T02:47:26.173Z,73.53
2023-12-17T02:48:26.246Z,73.53
2023-12-17T02:49:26.184Z,73.53
2023-12-17T02:50:26.076Z,73.43
2023-12-17T02:51:26.066Z,73.53
2023-12-17T02:52:26.032Z,73.53
2023-12-17T02:53:26.019Z,73.53
2023-12-17T02:54:26.099Z,73.53
2023-12-17T02:55:26.004Z,73.53
2023-12-17T02:56:26.006Z,73.57
2023-12-17T02:57:26.074Z,73.53
2023-12-17T02:58:25.952Z,73.53
2023-12-17T02:59:25.943Z,73.53
2023-12-17T03:00:26.061Z,73.53
2023-12-17T03:01:25.911Z,73.53
2023-12-17T03:02:25.912Z,73.53
2023-12-17T03:03:25.981Z,73.57
2023-12-17T03:04:25.882Z,73.53
2023-12-17T03:05:25.892Z,73.53
2023-12-17T03:06:25.890Z,73.53
2023-12-17T03:07:25.832Z,73.57
2023-12-17T03:08:25.819Z,73.53
2023-12-17T03:09:25.950Z,73.53
2023-12-17T03:10:25.796Z,73.57
2023-12-17T03:11:25.784Z,73.43
2023-12-17T03:12:25.816Z,73.53
2023-12-17T03:13:25.778Z,73.53
2023-12-17T03:14:25.756Z,73.53
2023-12-17T03:15:25.752Z,73.53
2023-12-17T03:16:25.718Z,73.53
2023-12-17T03:17:25.698Z,73.53
2023-12-17T03:18:25.938Z,73.53
2023-12-17T03:19:25.772Z,73.63
2023-12-17T03:20:25.665Z,73.53
2023-12-17T03:21:25.681Z,73.53
2023-12-17T03:22:25.634Z,73.53
2023-12-17T03:23:25.626Z,73.53
2023-12-17T03:24:25.663Z,73.57
2023-12-17T03:25:25.595Z,73.53
2023-12-17T03:26:25.604Z,73.53
2023-12-17T03:27:25.596Z,73.53
2023-12-17T03:28:25.550Z,73.53
2023-12-17T03:29:25.571Z,73.53
2023-12-17T03:30:25.736Z,73.53
2023-12-17T03:31:25.579Z,73.53
2023-12-17T03:32:25.664Z,73.53
2023-12-17T03:33:25.576Z,73.53
2023-12-17T03:34:25.558Z,73.53
2023-12-17T03:35:25.457Z,73.53
2023-12-17T03:36:25.479Z,73.53
2023-12-17T03:37:25.427Z,73.53
2023-12-17T03:38:25.413Z,73.63
2023-12-17T03:39:25.468Z,73.63
2023-12-17T03:40:25.390Z,73.53
2023-12-17T03:41:25.386Z,73.63
2023-12-17T03:42:25.388Z,73.57
2023-12-17T03:43:25.367Z,73.53
2023-12-17T03:44:25.336Z,73.53
2023-12-17T03:45:25.405Z,73.53
2023-12-17T03:46:25.313Z,73.57
2023-12-17T03:47:25.326Z,73.53
2023-12-17T03:48:25.446Z,73.53
2023-12-17T03:49:25.362Z,73.53
2023-12-17T03:50:25.259Z,73.57
2023-12-17T03:51:25.292Z,73.53
2023-12-17T03:52:25.232Z,73.53
2023-12-17T03:53:25.225Z,73.53
2023-12-17T03:54:25.245Z,73.53
2023-12-17T03:55:25.222Z,73.53
2023-12-17T03:56:25.177Z,73.53
2023-12-17T03:57:25.197Z,73.57
2023-12-17T03:58:25.154Z,73.46
2023-12-17T03:59:25.135Z,73.43
2023-12-17T04:00:25.319Z,73.43
2023-12-17T04:01:25.139Z,73.43
2023-12-17T04:02:25.118Z,73.43
2023-12-17T04:03:25.138Z,73.43
2023-12-17T04:04:25.078Z,73.46
2023-12-17T04:05:25.125Z,73.43
2023-12-17T04:06:25.105Z,73.43
2023-12-17T04:07:25.043Z,73.43
2023-12-17T04:08:25.018Z,73.36
2023-12-17T04:09:25.086Z,73.43
2023-12-17T04:10:24.992Z,73.43
2023-12-17T04:11:24.982Z,73.43
2023-12-17T04:12:25.009Z,73.43
2023-12-17T04:13:24.958Z,73.43
2023-12-17T04:14:24.951Z,73.43
2023-12-17T04:15:24.960Z,73.43
2023-12-17T04:16:24.911Z,73.43
2023-12-17T04:17:24.924Z,73.43
2023-12-17T04:18:25.017Z,73.46
2023-12-17T04:19:25.012Z,73.43
2023-12-17T04:20:24.863Z,73.46
2023-12-17T04:21:24.900Z,73.46
2023-12-17T04:22:24.834Z,73.46
2023-12-17T04:23:24.826Z,73.46
2023-12-17T04:24:24.866Z,73.43
2023-12-17T04:25:24.795Z,73.43
2023-12-17T04:26:24.777Z,73.46
2023-12-17T04:27:24.818Z,73.46
2023-12-17T04:28:24.750Z,73.43
2023-12-17T04:29:24.741Z,73.43
2023-12-17T04:30:24.868Z,73.46
2023-12-17T04:31:24.791Z,73.43
2023-12-17T04:32:24.708Z,73.46
2023-12-17T04:33:24.808Z,73.43
2023-12-17T04:34:25.029Z,73.43
2023-12-17T04:35:24.657Z,73.43
2023-12-17T04:36:24.745Z,73.46
2023-12-17T04:37:24.639Z,73.43
2023-12-17T04:38:24.625Z,73.46
2023-12-17T04:39:24.628Z,73.46
2023-12-17T04:40:24.615Z,73.43
2023-12-17T04:41:24.583Z,73.43
2023-12-17T04:42:24.596Z,73.43
2023-12-17T04:43:24.556Z,73.43
2023-12-17T04:44:24.551Z,73.46
2023-12-17T04:45:24.667Z,73.43
2023-12-17T04:46:24.516Z,73.46
2023-12-17T04:47:24.501Z,73.43
2023-12-17T04:48:24.706Z,73.46
2023-12-17T04:49:24.576Z,73.43
2023-12-17T04:50:24.469Z,73.43
2023-12-17T04:51:24.488Z,73.43
2023-12-17T04:52:24.431Z,73.33
2023-12-17T04:53:24.421Z,73.33
2023-12-17T04:54:24.495Z,73.33
2023-12-17T04:55:24.391Z,73.33
2023-12-17T04:56:24.380Z,73.43
2023-12-17T04:57:24.403Z,73.43
2023-12-17T04:58:24.351Z,73.46
2023-12-17T04:59:24.347Z,73.43
2023-12-17T05:00:24.403Z,73.46
2023-12-17T05:01:24.329Z,73.43
2023-12-17T05:02:24.304Z,73.46
2023-12-17T05:03:24.365Z,73.36
2023-12-17T05:04:24.504Z,73.33
2023-12-17T05:05:24.529Z,73.33
2023-12-17T05:06:24.304Z,73.43
2023-12-17T05:07:24.254Z,73.33
2023-12-17T05:08:24.226Z,73.46
2023-12-17T05:09:24.254Z,73.46
2023-12-17T05:10:24.205Z,73.46
2023-12-17T05:11:24.190Z,73.33
2023-12-17T05:12:24.284Z,73.36
2023-12-17T05:13:24.153Z,73.36
2023-12-17T05:14:24.144Z,73.43
2023-12-17T05:15:24.182Z,73.33
2023-12-17T05:16:24.112Z,73.46
2023-12-17T05:17:24.340Z,73.46
2023-12-17T05:18:24.180Z,73.43
2023-12-17T05:19:24.176Z,73.43
2023-12-17T05:20:24.061Z,73.43
2023-12-17T05:21:24.151Z,73.46
2023-12-17T05:22:24.031Z,73.43
2023-12-17T05:23:24.019Z,73.43
2023-12-17T05:24:24.048Z,73.43
2023-12-17T05:25:23.991Z,73.43
2023-12-17T05:26:23.978Z,73.43
2023-12-17T05:27:24.033Z,73.53
2023-12-17T05:28:23.961Z,73.46
2023-12-17T05:29:23.946Z,73.46
2023-12-17T05:30:24.159Z,73.43
2023-12-17T05:31:23.964Z,73.46
2023-12-17T05:32:23.904Z,73.57
2023-12-17T05:33:23.983Z,73.53
2023-12-17T05:34:23.980Z,73.46
2023-12-17T05:35:23.859Z,73.43
2023-12-17T05:36:23.925Z,73.43
2023-12-17T05:37:23.863Z,73.46
2023-12-17T05:38:23.821Z,73.43
2023-12-17T05:39:23.881Z,73.43
2023-12-17T05:40:23.790Z,73.43
2023-12-17T05:41:23.778Z,73.53
2023-12-17T05:42:23.856Z,73.53
2023-12-17T05:43:23.759Z,73.53
2023-12-17T05:44:23.741Z,73.53
2023-12-17T05:45:23.746Z,73.53
2023-12-17T05:46:23.720Z,73.53
2023-12-17T05:47:23.720Z,73.57
2023-12-17T05:48:23.776Z,73.46
2023-12-17T05:49:23.847Z,73.53
2023-12-17T05:50:23.750Z,73.53
2023-12-17T05:51:23.666Z,73.53
2023-12-17T05:52:23.635Z,73.53
2023-12-17T05:53:30.200Z,73.57
2023-12-17T05:54:24.724Z,73.57
2023-12-17T05:55:23.590Z,73.57
2023-12-17T05:56:23.575Z,73.57
2023-12-17T05:57:23.589Z,73.57
2023-12-17T05:58:23.547Z,73.57
2023-12-17T05:59:23.538Z,73.57
2023-12-17T06:00:23.556Z,73.53
2023-12-17T06:01:23.557Z,73.53
2023-12-17T06:02:23.502Z,73.57
2023-12-17T06:03:23.620Z,73.57
2023-12-17T06:04:23.559Z,73.53
2023-12-17T06:05:23.481Z,73.53
2023-12-17T06:06:24.295Z,73.57
2023-12-17T06:07:23.436Z,73.53
2023-12-17T06:08:23.428Z,73.53
2023-12-17T06:09:23.502Z,73.53
2023-12-17T06:10:23.388Z,73.53
2023-12-17T06:11:23.409Z,73.53
2023-12-17T06:12:23.423Z,73.53
2023-12-17T06:13:23.354Z,73.57
2023-12-17T06:14:23.337Z,73.53
2023-12-17T06:15:23.352Z,73.53
2023-12-17T06:16:23.311Z,73.57
2023-12-17T06:17:23.333Z,73.53
2023-12-17T06:18:23.396Z,73.53
2023-12-17T06:19:23.396Z,73.53
2023-12-17T06:20:24.323Z,73.67
2023-12-17T06:21:23.389Z,73.53
2023-12-17T06:22:23.258Z,73.53
2023-12-17T06:23:23.221Z,73.53
2023-12-17T06:24:23.243Z,73.53
2023-12-17T06:25:23.230Z,73.53
2023-12-17T06:26:23.177Z,73.57
2023-12-17T06:27:23.257Z,73.53
2023-12-17T06:28:23.155Z,73.57
2023-12-17T06:29:23.146Z,73.53
2023-12-17T06:30:23.203Z,73.57
2023-12-17T06:31:23.143Z,73.57
2023-12-17T06:32:23.139Z,73.57
2023-12-17T06:33:23.298Z,73.57
2023-12-17T06:34:23.233Z,73.57
2023-12-17T06:35:23.075Z,73.53
2023-12-17T06:36:23.267Z,73.57
2023-12-17T06:37:23.033Z,73.57
2023-12-17T06:38:23.017Z,73.53
2023-12-17T06:39:23.061Z,73.53
2023-12-17T06:40:22.998Z,73.53
2023-12-17T06:41:23.008Z,73.57
2023-12-17T06:42:23.045Z,73.57
2023-12-17T06:43:22.954Z,73.57
2023-12-17T06:44:22.938Z,73.57
2023-12-17T06:45:22.969Z,73.53
2023-12-17T06:46:22.908Z,73.53
2023-12-17T06:47:28.299Z,73.53
2023-12-17T06:48:23.154Z,73.53
2023-12-17T06:49:23.009Z,73.57
2023-12-17T06:50:22.866Z,73.53
2023-12-17T06:51:22.894Z,73.57
2023-12-17T06:52:22.833Z,73.57
2023-12-17T06:53:22.823Z,73.53
2023-12-17T06:54:22.834Z,73.53
2023-12-17T06:55:22.803Z,73.53
2023-12-17T06:56:22.787Z,73.53
2023-12-17T06:57:22.870Z,73.53
2023-12-17T06:58:22.751Z,73.53
2023-12-17T06:59:22.762Z,73.53
2023-12-17T07:00:22.764Z,73.57
2023-12-17T07:01:22.756Z,73.57
2023-12-17T07:02:22.740Z,73.53
2023-12-17T07:03:22.855Z,73.67
2023-12-17T07:04:22.670Z,73.57
2023-12-17T07:05:22.677Z,73.53
2023-12-17T07:06:22.677Z,73.53
2023-12-17T07:07:22.630Z,73.53
2023-12-17T07:08:22.619Z,73.53
2023-12-17T07:09:22.665Z,73.67
2023-12-17T07:10:22.608Z,73.53
2023-12-17T07:11:22.591Z,73.63
2023-12-17T07:12:22.626Z,73.53
2023-12-17T07:13:22.578Z,73.53
2023-12-17T07:14:22.549Z,73.53
2023-12-17T07:15:22.617Z,73.53
2023-12-17T07:16:22.517Z,73.53
2023-12-17T07:17:22.593Z,73.63
2023-12-17T07:18:22.552Z,73.63
2023-12-17T07:19:22.637Z,73.63
2023-12-17T07:20:22.462Z,73.63
2023-12-17T07:21:22.529Z,73.63
2023-12-17T07:22:22.527Z,73.67
2023-12-17T07:23:22.421Z,73.63
2023-12-17T07:24:22.486Z,73.63
2023-12-17T07:25:22.396Z,73.63
2023-12-17T07:26:23.352Z,73.63
2023-12-17T07:27:22.410Z,73.63
2023-12-17T07:28:22.365Z,73.53
2023-12-17T07:29:22.363Z,73.67
2023-12-17T07:30:22.393Z,73.63
2023-12-17T07:31:22.480Z,73.63
2023-12-17T07:32:22.372Z,73.63
2023-12-17T07:33:22.323Z,73.63
2023-12-17T07:34:22.412Z,73.63
2023-12-17T07:35:22.276Z,73.67
2023-12-17T07:36:22.281Z,73.67
2023-12-17T07:37:22.233Z,73.63
2023-12-17T07:38:22.221Z,73.67
2023-12-17T07:39:22.276Z,73.63
2023-12-17T07:40:22.195Z,73.63
2023-12-17T07:41:22.182Z,73.63
2023-12-17T07:42:23.972Z,73.63
2023-12-17T07:43:22.155Z,73.63
2023-12-17T07:44:22.150Z,73.63
2023-12-17T07:45:22.189Z,73.63
2023-12-17T07:46:22.113Z,73.74
2023-12-17T07:47:22.130Z,73.63
2023-12-17T07:48:22.138Z,73.63
2023-12-17T07:49:22.218Z,73.63
2023-12-17T07:50:22.078Z,73.63
2023-12-17T07:51:22.129Z,73.63
2023-12-17T07:52:22.033Z,73.63
2023-12-17T07:53:22.027Z,73.63
2023-12-17T07:54:22.117Z,73.63
2023-12-17T07:55:22.008Z,73.63
2023-12-17T07:56:21.984Z,73.74
2023-12-17T07:57:22.012Z,73.74
2023-12-17T07:58:21.954Z,73.74
2023-12-17T07:59:21.942Z,73.74
2023-12-17T08:00:21.950Z,73.63
2023-12-17T08:01:21.979Z,73.63
2023-12-17T08:02:21.899Z,73.63
2023-12-17T08:03:21.999Z,73.63
2023-12-17T08:04:22.028Z,73.74
2023-12-17T08:05:21.863Z,73.74
2023-12-17T08:06:21.885Z,73.63
2023-12-17T08:07:21.876Z,73.63
2023-12-17T08:08:21.878Z,73.74
2023-12-17T08:09:21.861Z,73.74
2023-12-17T08:10:21.823Z,73.74
2023-12-17T08:11:21.810Z,73.63
2023-12-17T08:12:21.821Z,73.63
2023-12-17T08:13:21.754Z,73.74
2023-12-17T08:14:21.773Z,73.74
2023-12-17T08:15:21.827Z,73.74
2023-12-17T08:16:21.724Z,73.74
2023-12-17T08:17:21.735Z,73.74
2023-12-17T08:18:21.749Z,73.74
2023-12-17T08:19:21.679Z,73.74
2023-12-17T08:20:21.661Z,73.74
2023-12-17T08:21:21.725Z,73.74
2023-12-17T08:22:21.687Z,73.74
2023-12-17T08:23:21.623Z,73.74
2023-12-17T08:24:21.643Z,73.74
2023-12-17T08:25:21.599Z,73.63
2023-12-17T08:26:21.584Z,73.74
2023-12-17T08:27:21.633Z,73.63
2023-12-17T08:28:21.568Z,73.63
2023-12-17T08:29:21.540Z,73.63
2023-12-17T08:30:21.639Z,73.63
2023-12-17T08:31:21.573Z,73.63
2023-12-17T08:32:21.500Z,73.63
2023-12-17T08:33:21.636Z,73.63
2023-12-17T08:34:21.553Z,73.63
2023-12-17T08:35:21.461Z,73.63
2023-12-17T08:36:21.448Z,73.63
2023-12-17T08:37:21.436Z,73.63
2023-12-17T08:38:21.438Z,73.63
2023-12-17T08:39:21.420Z,73.63
2023-12-17T08:40:21.404Z,73.63
2023-12-17T08:41:21.446Z,73.63
2023-12-17T08:42:21.420Z,73.63
2023-12-17T08:43:21.356Z,73.63
2023-12-17T08:44:21.344Z,73.63
2023-12-17T08:45:21.391Z,73.63
2023-12-17T08:46:21.316Z,73.63
2023-12-17T08:47:21.301Z,73.63
2023-12-17T08:48:21.460Z,73.63
2023-12-17T08:49:21.512Z,73.63
2023-12-17T08:50:21.263Z,73.53
2023-12-17T08:51:21.302Z,73.53
2023-12-17T08:52:21.239Z,73.53
2023-12-17T08:53:21.226Z,73.53
2023-12-17T08:54:21.245Z,73.53
2023-12-17T08:55:21.198Z,73.53
2023-12-17T08:56:22.843Z,73.53
2023-12-17T08:57:21.236Z,73.53
2023-12-17T08:58:21.156Z,73.53
2023-12-17T08:59:21.140Z,73.63
2023-12-17T09:00:21.183Z,73.63
2023-12-17T09:01:21.139Z,73.63
2023-12-17T09:02:21.103Z,73.53
2023-12-17T09:03:21.146Z,73.53
2023-12-17T09:04:21.099Z,73.63
2023-12-17T09:05:21.103Z,73.53
2023-12-17T09:06:21.055Z,73.53
2023-12-17T09:07:21.081Z,73.63
2023-12-17T09:08:21.067Z,73.53
2023-12-17T09:09:21.113Z,73.63
2023-12-17T09:10:20.997Z,73.63
2023-12-17T09:11:20.984Z,73.63
2023-12-17T09:12:20.981Z,73.63
2023-12-17T09:13:20.988Z,73.63
2023-12-17T09:14:20.943Z,73.63
2023-12-17T09:15:21.001Z,73.53
2023-12-17T09:16:20.932Z,73.53
2023-12-17T09:17:20.952Z,73.63
2023-12-17T09:18:21.030Z,73.53
2023-12-17T09:19:20.983Z,73.63
2023-12-17T09:20:20.862Z,73.63
2023-12-17T09:21:20.929Z,73.74
2023-12-17T09:22:20.836Z,73.63
2023-12-17T09:23:20.821Z,73.63
2023-12-17T09:24:20.862Z,73.63
2023-12-17T09:25:20.835Z,73.63
2023-12-17T09:26:20.782Z,73.63
2023-12-17T09:27:20.870Z,73.63
2023-12-17T09:28:20.758Z,73.63
2023-12-17T09:29:20.746Z,73.63
2023-12-17T09:30:20.897Z,73.63
2023-12-17T09:31:20.796Z,73.53
2023-12-17T09:32:20.716Z,73.53
2023-12-17T09:33:20.831Z,73.53
2023-12-17T09:34:20.743Z,73.53
2023-12-17T09:35:20.668Z,73.53
2023-12-17T09:36:20.678Z,73.53
2023-12-17T09:37:20.661Z,73.53
2023-12-17T09:38:20.622Z,73.53
2023-12-17T09:39:20.648Z,73.43
2023-12-17T09:40:20.596Z,73.43
2023-12-17T09:41:20.580Z,73.43
2023-12-17T09:42:20.684Z,73.43
2023-12-17T09:43:20.591Z,73.43
2023-12-17T09:44:20.545Z,73.43
2023-12-17T09:45:20.659Z,73.43
2023-12-17T09:46:20.515Z,73.43
2023-12-17T09:47:20.501Z,73.43
2023-12-17T09:48:20.649Z,73.43
2023-12-17T09:49:20.627Z,73.43
2023-12-17T09:50:20.464Z,73.43
2023-12-17T09:51:20.519Z,73.43
2023-12-17T09:52:20.445Z,73.43
2023-12-17T09:53:20.445Z,73.43
2023-12-17T09:54:20.439Z,73.43
2023-12-17T09:55:20.405Z,73.43
2023-12-17T09:56:20.379Z,73.33
2023-12-17T09:57:20.441Z,73.33
2023-12-17T09:58:21.003Z,73.33
2023-12-17T09:59:20.346Z,73.33
2023-12-17T10:00:20.517Z,73.43
2023-12-17T10:01:20.469Z,73.43
2023-12-17T10:02:20.302Z,73.43
2023-12-17T10:03:20.560Z,73.43
2023-12-17T10:04:20.413Z,73.43
2023-12-17T10:05:20.308Z,73.43
2023-12-17T10:06:20.297Z,73.43
2023-12-17T10:07:20.232Z,73.43
2023-12-17T10:08:20.243Z,73.43
2023-12-17T10:09:20.402Z,73.33
2023-12-17T10:10:20.243Z,73.43
2023-12-17T10:11:20.235Z,73.43
2023-12-17T10:12:20.324Z,73.33
2023-12-17T10:13:20.162Z,73.33
2023-12-17T10:14:20.142Z,73.33
2023-12-17T10:15:20.203Z,73.33
2023-12-17T10:16:20.124Z,73.33
2023-12-17T10:17:20.114Z,73.33
2023-12-17T10:18:20.409Z,73.33
2023-12-17T10:19:20.309Z,73.22
2023-12-17T10:20:20.072Z,73.22
2023-12-17T10:21:20.088Z,73.22
2023-12-17T10:22:20.029Z,73.22
2023-12-17T10:23:20.027Z,73.22
2023-12-17T10:24:20.084Z,73.22
2023-12-17T10:25:20.028Z,73.22
2023-12-17T10:26:19.981Z,73.22
2023-12-17T10:27:20.015Z,73.22
2023-12-17T10:28:19.952Z,73.22
2023-12-17T10:29:19.955Z,73.22
2023-12-17T10:30:20.023Z,73.22
2023-12-17T10:31:19.997Z,73.22
2023-12-17T10:32:19.933Z,73.22
2023-12-17T10:33:20.122Z,73.22
2023-12-17T10:34:20.139Z,73.22
2023-12-17T10:35:19.885Z,73.22
2023-12-17T10:36:19.869Z,73.22
2023-12-17T10:37:19.833Z,73.12
2023-12-17T10:38:19.837Z,73.22
2023-12-17T10:39:19.869Z,73.22
2023-12-17T10:40:19.810Z,73.22
2023-12-17T10:41:19.806Z,73.12
2023-12-17T10:42:19.885Z,73.22
2023-12-17T10:43:19.755Z,73.22
2023-12-17T10:44:19.739Z,73.22
2023-12-17T10:45:19.863Z,73.22
2023-12-17T10:46:19.722Z,73.22
2023-12-17T10:47:19.705Z,73.12
2023-12-17T10:48:19.753Z,73.12
2023-12-17T10:49:19.805Z,73.12
2023-12-17T10:50:19.668Z,73.12
2023-12-17T10:51:19.770Z,73.09
2023-12-17T10:52:19.635Z,73.12
2023-12-17T10:53:19.617Z,73.22
2023-12-17T10:54:19.661Z,73.22
2023-12-17T10:55:19.595Z,73.22
2023-12-17T10:56:19.580Z,73.22
2023-12-17T10:57:19.634Z,73.12
2023-12-17T10:58:19.563Z,73.12
2023-12-17T10:59:27.201Z,73.12
2023-12-17T11:00:22.591Z,73.12
2023-12-17T11:01:19.539Z,73.22
2023-12-17T11:02:19.504Z,73.22
2023-12-17T11:03:19.650Z,73.22
2023-12-17T11:04:19.474Z,73.22
2023-12-17T11:05:19.491Z,73.22
2023-12-17T11:06:19.539Z,73.12
2023-12-17T11:07:27.294Z,73.22
2023-12-17T11:08:20.455Z,73.22
2023-12-17T11:09:19.450Z,73.22
2023-12-17T11:10:19.399Z,73.22
2023-12-17T11:11:19.380Z,73.22
2023-12-17T11:12:19.426Z,73.22
2023-12-17T11:13:19.380Z,73.22
2023-12-17T11:14:19.346Z,73.22
2023-12-17T11:15:19.353Z,73.22
2023-12-17T11:16:19.318Z,73.22
2023-12-17T11:17:19.303Z,73.22
2023-12-17T11:18:19.494Z,73.22
2023-12-17T11:19:19.438Z,73.22
2023-12-17T11:20:19.260Z,73.22
2023-12-17T11:21:19.324Z,73.22
2023-12-17T11:22:19.234Z,73.22
2023-12-17T11:23:19.221Z,73.22
2023-12-17T11:24:19.249Z,73.22
2023-12-17T11:25:19.192Z,73.22
2023-12-17T11:26:19.332Z,73.22
2023-12-17T11:27:19.216Z,73.22
2023-12-17T11:28:19.164Z,73.22
2023-12-17T11:29:19.162Z,73.22
2023-12-17T11:30:19.214Z,73.22
2023-12-17T11:31:19.139Z,73.22
2023-12-17T11:32:19.100Z,73.22
2023-12-17T11:33:19.231Z,73.22
2023-12-17T11:34:19.227Z,73.22
2023-12-17T11:35:19.060Z,73.22
2023-12-17T11:36:19.094Z,73.22
2023-12-17T11:37:19.035Z,73.22
2023-12-17T11:38:19.127Z,73.22
2023-12-17T11:39:19.117Z,73.22
2023-12-17T11:40:19.001Z,73.22
2023-12-17T11:41:19.003Z,73.22
2023-12-17T11:42:19.122Z,73.22
2023-12-17T11:43:18.955Z,73.22
2023-12-17T11:44:18.942Z,73.22
2023-12-17T11:45:19.070Z,73.22
2023-12-17T11:46:18.982Z,73.22
2023-12-17T11:47:18.991Z,73.22
2023-12-17T11:48:19.580Z,73.22
2023-12-17T11:49:18.934Z,73.22
2023-12-17T11:50:18.903Z,73.22
2023-12-17T11:51:18.949Z,73.22
2023-12-17T11:52:18.856Z,73.22
2023-12-17T11:53:18.918Z,73.22
2023-12-17T11:54:18.932Z,73.22
2023-12-17T11:55:18.837Z,73.22
2023-12-17T11:56:18.840Z,73.22
2023-12-17T11:57:18.933Z,73.22
2023-12-17T11:58:18.992Z,73.22
2023-12-17T11:59:18.743Z,73.22
2023-12-17T12:00:18.763Z,73.22
2023-12-17T12:01:18.817Z,73.22
2023-12-17T12:02:18.726Z,73.22
2023-12-17T12:03:18.741Z,73.22
2023-12-17T12:04:18.712Z,73.22
2023-12-17T12:05:18.727Z,73.22
2023-12-17T12:06:18.719Z,73.22
2023-12-17T12:07:18.748Z,73.22
2023-12-17T12:08:18.642Z,73.22
2023-12-17T12:09:18.674Z,73.22
2023-12-17T12:10:18.598Z,73.22
2023-12-17T12:11:18.581Z,73.22
2023-12-17T12:12:18.602Z,73.22
2023-12-17T12:13:18.554Z,73.22
2023-12-17T12:14:18.542Z,73.22
2023-12-17T12:15:18.582Z,73.12
2023-12-17T12:16:18.624Z,73.09
2023-12-17T12:17:18.532Z,73.12
2023-12-17T12:18:18.618Z,73.12
2023-12-17T12:19:23.509Z,73.12
2023-12-17T12:20:19.514Z,73.19
2023-12-17T12:21:18.580Z,73.22
2023-12-17T12:22:18.435Z,73.22
2023-12-17T12:23:18.422Z,73.22
2023-12-17T12:24:18.428Z,73.22
2023-12-17T12:25:18.489Z,73.22
2023-12-17T12:26:18.381Z,73.22
2023-12-17T12:27:18.393Z,73.22
2023-12-17T12:28:20.907Z,73.22
2023-12-17T12:29:18.350Z,73.22
2023-12-17T12:30:18.377Z,73.22
2023-12-17T12:31:18.342Z,73.22
2023-12-17T12:32:18.298Z,73.22
2023-12-17T12:33:18.412Z,73.22
2023-12-17T12:34:18.350Z,73.22
2023-12-17T12:35:18.266Z,73.22
2023-12-17T12:36:18.260Z,73.22
2023-12-17T12:37:18.233Z,73.22
2023-12-17T12:38:18.244Z,73.22
2023-12-17T12:39:18.401Z,73.19
2023-12-17T12:40:18.230Z,73.22
2023-12-17T12:41:18.201Z,73.19
2023-12-17T12:42:18.245Z,73.22
2023-12-17T12:43:18.170Z,73.22
2023-12-17T12:44:18.135Z,73.22
2023-12-17T12:45:18.326Z,73.22
2023-12-17T12:46:18.131Z,73.22
2023-12-17T12:47:18.099Z,73.22
2023-12-17T12:48:18.320Z,73.22
2023-12-17T12:49:18.212Z,73.22
2023-12-17T12:50:18.061Z,73.22
2023-12-17T12:51:18.067Z,73.22
2023-12-17T12:52:18.034Z,73.22